KCNO/CNO METAR and TAF weather

Enter ICAO airport designator
Station Type Date Time Source
KCNO METAR 2020/07/10 19:53 UTC NOAA

KCNO 101953Z 00000KT 10SM FEW200 37/12 A2998 RMK AO2 SLP144 T03720117


Station Type Date Time Source
KCNO Decoded METAR 2020/07/10 19:53 UTC NOAA

CHINO AIRPORT, CA, United States (KCNO) 33-58N 117-38W 207M
Jul 10, 2020 - 03:53 PM EDT / 2020.07.10 1953 UTC
Wind: Calm:0
Visibility: 10 mile(s):0
Sky conditions: mostly clear
Temperature: 99.0 F (37.2 C)
Heat index: 96.6 F (35.9 C):1
Dew Point: 53.1 F (11.7 C)
Relative Humidity: 21%
Pressure (altimeter): 29.98 in. Hg (1015 hPa)
ob: KCNO 101953Z 00000KT 10SM FEW200 37/12 A2998 RMK AO2 SLP144 T03720117
cycle: 20

Station Type Date Time Source
KCNO TAF UTC NOAA

Error!

Example: see airport list